Time;durP1;ratioP1;P1;durP2;ratioP2;P2;SDS_P1;SDS_P2;PMS_P1;PMS_P2;Temp;Humidity;BMP_temperature;BMP_pressure;BME280_temperature;BME280_humidity;BME280_pressure;Samples;Min_cycle;Max_cycle;Signal;HPM_P1;HPM_P2
2022/05/11 00:01:25;;;;;;;6.70;6.17;;;21.50;44.20;;;;;;20767;6833;117265;-73
2022/05/11 00:03:48;;;;;;;6.40;6.00;;;21.50;44.20;;;;;;20538;6833;307669;-73
2022/05/11 00:06:14;;;;;;;6.43;5.95;;;21.60;43.80;;;;;;20743;6833;117333;-73
2022/05/11 00:08:39;;;;;;;6.20;5.87;;;21.40;43.80;;;;;;20758;6833;117228;-73
2022/05/11 00:11:05;;;;;;;5.83;5.53;;;21.10;44.10;;;;;;20539;6834;307596;-73
2022/05/11 00:13:31;;;;;;;6.33;5.90;;;21.30;44.00;;;;;;20756;6834;117730;-73
2022/05/11 00:15:56;;;;;;;6.10;5.80;;;21.20;44.00;;;;;;20518;6834;311688;-73
2022/05/11 00:18:23;;;;;;;6.05;5.75;;;21.30;43.70;;;;;;20759;6834;123798;-73
2022/05/11 00:20:49;;;;;;;6.13;5.83;;;21.30;43.90;;;;;;20538;6834;307539;-72
2022/05/11 00:23:15;;;;;;;6.13;5.83;;;21.30;43.90;;;;;;20755;6834;117733;-73
2022/05/11 00:25:41;;;;;;;6.20;5.70;;;21.00;44.10;;;;;;20757;6834;117268;-72
2022/05/11 00:28:06;;;;;;;6.00;5.53;;;21.00;44.10;;;;;;20733;6834;117358;-73
2022/05/11 00:30:32;;;;;;;6.57;6.17;;;20.80;44.40;;;;;;20548;6834;277561;-73
2022/05/11 00:32:58;;;;;;;5.78;5.45;;;20.90;44.00;;;;;;20756;6834;119917;-73
2022/05/11 00:35:23;;;;;;;6.10;5.80;;;21.00;44.10;;;;;;20535;6834;307978;-72
2022/05/11 00:37:49;;;;;;;6.00;5.60;;;21.10;43.90;;;;;;20751;6834;123632;-72
2022/05/11 00:40:14;;;;;;;5.72;5.35;;;21.00;43.90;;;;;;20525;6834;277984;-73
2022/05/11 00:42:40;;;;;;;5.90;5.50;;;21.20;44.30;;;;;;20532;6834;337105;-73
2022/05/11 00:45:06;;;;;;;6.35;5.85;;;21.40;43.40;;;;;;20762;6834;117509;-73
2022/05/11 00:47:38;;;;;;;5.90;5.50;;;21.30;43.50;;;;;;20549;6834;308749;-71
2022/05/11 00:50:05;;;;;;;6.50;6.10;;;21.50;43.00;;;;;;20520;6834;319646;-72
2022/05/11 00:52:34;;;;;;;5.57;5.17;;;21.50;43.00;;;;;;20741;6834;117535;-72
2022/05/11 00:54:59;;;;;;;6.10;5.60;;;21.30;43.10;;;;;;20532;6834;308087;-72
2022/05/11 00:57:44;;;;;;;5.93;5.62;;;21.30;44.10;;;;;;20453;6834;281673;-72
2022/05/11 01:00:13;;;;;;;5.83;5.47;;;21.50;43.20;;;;;;20713;6834;117547;-73
2022/05/11 01:02:42;;;;;;;5.60;5.30;;;21.20;43.40;;;;;;20756;6832;117770;-71
2022/05/11 01:05:07;;;;;;;5.97;5.67;;;20.80;43.90;;;;;;20753;6833;121043;-71
2022/05/11 01:07:33;;;;;;;5.93;5.63;;;20.50;44.40;;;;;;20754;6833;117569;-73
2022/05/11 01:09:58;;;;;;;6.07;5.73;;;20.30;44.80;;;;;;20725;6833;117674;-74
2022/05/11 01:12:24;;;;;;;6.50;6.10;;;20.10;45.10;;;;;;20538;6833;278507;-73
2022/05/11 01:14:49;;;;;;;6.43;6.03;;;20.30;45.30;;;;;;20735;6833;117597;-73
2022/05/11 01:17:15;;;;;;;6.50;6.10;;;20.30;45.10;;;;;;20536;6833;307635;-73
2022/05/11 01:19:41;;;;;;;6.40;6.00;;;20.40;45.00;;;;;;20545;6833;310825;-72
2022/05/11 01:22:10;;;;;;;6.97;6.57;;;20.70;45.10;;;;;;20511;6834;308127;-72
2022/05/11 01:24:48;;;;;;;6.70;6.30;;;20.90;44.50;;;;;;20523;6834;278482;-72
2022/05/11 01:27:35;;;;;;;6.50;6.20;;;21.00;44.20;;;;;;20540;6834;337564;-73
2022/05/11 01:29:59;;;;;;;5.97;5.67;;;21.10;43.90;;;;;;20723;6834;118772;-72
2022/05/11 01:32:25;;;;;;;6.60;6.20;;;20.70;44.10;;;;;;20526;6834;312027;-72
2022/05/11 01:34:51;;;;;;;6.50;6.10;;;20.70;44.40;;;;;;20531;6834;307447;-72
2022/05/11 01:37:16;;;;;;;6.07;5.57;;;20.80;44.40;;;;;;20740;6834;117861;-72
2022/05/11 01:39:44;;;;;;;6.90;6.40;;;20.60;44.50;;;;;;20754;6834;117350;-72
2022/05/11 01:42:07;;;;;;;6.78;6.40;;;20.20;44.90;;;;;;20516;6834;304481;-73
2022/05/11 01:44:34;;;;;;;6.87;6.47;;;20.50;45.10;;;;;;20543;6834;307635;-72
2022/05/11 01:47:00;;;;;;;7.10;6.70;;;20.70;44.60;;;;;;20547;6834;307552;-72
2022/05/11 01:49:27;;;;;;;6.57;6.20;;;20.60;44.50;;;;;;20542;6834;307994;-72
2022/05/11 01:51:52;;;;;;;6.87;6.40;;;20.70;44.70;;;;;;20548;6834;311508;-72
2022/05/11 01:54:18;;;;;;;6.40;6.10;;;20.80;44.80;;;;;;20735;6834;118970;-72
2022/05/11 01:56:43;;;;;;;6.30;6.00;;;20.50;44.80;;;;;;20758;6834;117581;-72
2022/05/11 01:59:09;;;;;;;6.60;6.20;;;20.10;45.30;;;;;;20526;6834;279414;-72
2022/05/11 02:01:35;;;;;;;6.62;6.22;;;20.10;45.40;;;;;;20520;6834;312571;-72
2022/05/11 02:04:01;;;;;;;6.82;6.32;;;20.30;45.00;;;;;;20472;6834;307217;-72
2022/05/11 02:09:12;;;;;;;6.80;6.50;;;20.20;45.20;;;;;;20528;6834;308243;-72
2022/05/11 02:11:38;;;;;;;6.55;6.25;;;20.20;45.30;;;;;;20736;6834;120329;-72
2022/05/11 02:14:04;;;;;;;6.78;6.47;;;20.00;45.40;;;;;;20726;6832;127089;-73
2022/05/11 02:16:29;;;;;;;6.67;6.37;;;19.70;45.90;;;;;;20747;6833;117396;-72
2022/05/11 02:18:55;;;;;;;6.93;6.53;;;19.40;46.40;;;;;;20524;6833;277990;-72
2022/05/11 02:21:20;;;;;;;6.90;6.57;;;19.50;46.90;;;;;;20538;6833;302699;-72
2022/05/11 02:23:50;;;;;;;6.62;6.22;;;19.90;46.80;;;;;;20757;6833;117526;-72
2022/05/11 02:26:12;;;;;;;7.40;6.90;;;19.70;46.40;;;;;;20511;6833;282782;-73
2022/05/11 02:28:38;;;;;;;6.43;6.10;;;19.60;46.40;;;;;;20748;6833;117866;-72
2022/05/11 02:31:04;;;;;;;6.63;6.27;;;19.60;46.40;;;;;;20746;6833;117750;-72
2022/05/11 02:33:31;;;;;;;6.85;6.28;;;19.30;46.80;;;;;;20753;6834;122594;-72
2022/05/11 02:35:56;;;;;;;7.20;6.80;;;19.00;47.00;;;;;;20519;6834;311563;-73
2022/05/11 02:38:23;;;;;;;7.78;7.28;;;19.20;47.50;;;;;;20539;6834;308414;-72
2022/05/11 02:40:49;;;;;;;7.23;6.83;;;19.50;47.00;;;;;;20546;6834;279300;-72
2022/05/11 02:43:15;;;;;;;7.55;7.07;;;19.70;46.60;;;;;;20541;6834;307538;-72
2022/05/11 02:45:40;;;;;;;7.82;7.32;;;19.90;46.30;;;;;;20539;6834;337399;-72
2022/05/11 02:48:07;;;;;;;7.75;7.25;;;20.00;46.10;;;;;;20530;6834;283196;-72
2022/05/11 02:50:31;;;;;;;7.00;6.53;;;20.00;45.90;;;;;;20749;6834;117931;-72
2022/05/11 02:52:57;;;;;;;7.05;6.45;;;19.70;46.30;;;;;;20743;6834;117233;-72
2022/05/11 02:55:22;;;;;;;8.10;7.70;;;19.30;46.90;;;;;;20539;6834;307087;-72
2022/05/11 02:57:48;;;;;;;7.43;7.05;;;19.30;47.40;;;;;;20750;6834;117241;-72
2022/05/11 03:00:14;;;;;;;8.20;7.80;;;19.20;47.50;;;;;;20524;6834;278179;-72
2022/05/11 03:02:39;;;;;;;7.28;6.87;;;19.20;47.50;;;;;;20743;6834;117251;-72
2022/05/11 03:05:05;;;;;;;6.87;6.57;;;19.10;47.60;;;;;;20751;6834;117307;-72
2022/05/11 03:07:30;;;;;;;7.35;6.87;;;18.80;47.90;;;;;;20750;6834;117752;-72
2022/05/11 03:09:56;;;;;;;7.93;7.43;;;18.50;48.20;;;;;;20520;6834;306084;-72
2022/05/11 03:12:22;;;;;;;7.10;6.70;;;18.70;48.60;;;;;;20752;6834;117455;-72
2022/05/11 03:14:48;;;;;;;7.87;7.47;;;18.70;48.40;;;;;;20538;6834;282792;-72
2022/05/11 03:17:14;;;;;;;7.17;6.67;;;18.90;49.00;;;;;;20759;6834;118016;-72
2022/05/11 03:19:39;;;;;;;6.57;6.28;;;18.80;48.70;;;;;;20759;6834;117564;-72
2022/05/11 03:22:05;;;;;;;7.32;6.93;;;18.60;48.90;;;;;;20522;6834;278464;-72
2022/05/11 03:24:30;;;;;;;7.75;7.35;;;18.70;48.90;;;;;;20764;6832;117331;-72
2022/05/11 03:26:56;;;;;;;8.57;7.97;;;18.70;49.10;;;;;;20542;6833;294222;-72
2022/05/11 03:29:22;;;;;;;8.13;7.63;;;18.80;48.90;;;;;;20769;6833;117634;-70
2022/05/11 03:34:39;;;;;;;7.93;7.53;;;18.50;49.10;;;;;;20552;6833;292076;-70
2022/05/11 03:37:04;;;;;;;8.07;7.47;;;18.60;49.10;;;;;;20545;6833;336615;-71
2022/05/11 03:39:31;;;;;;;8.07;7.37;;;18.80;48.40;;;;;;20753;6833;119531;-71
2022/05/11 03:41:56;;;;;;;7.85;7.43;;;18.80;48.60;;;;;;20532;6833;312756;-71
2022/05/11 03:44:22;;;;;;;8.00;7.60;;;18.80;48.50;;;;;;20550;6834;312574;-71
2022/05/11 03:46:47;;;;;;;7.63;7.13;;;19.00;48.20;;;;;;20763;6834;117676;-71
2022/05/11 03:49:14;;;;;;;8.20;7.50;;;18.90;48.30;;;;;;20756;6834;117699;-71
2022/05/11 03:51:39;;;;;;;7.40;7.03;;;18.50;48.60;;;;;;20757;6834;117780;-71
2022/05/11 03:54:04;;;;;;;7.87;7.37;;;18.20;49.70;;;;;;20537;6834;278056;-71
2022/05/11 03:56:30;;;;;;;7.50;7.10;;;18.40;49.50;;;;;;20758;6834;117426;-71
2022/05/11 03:58:56;;;;;;;8.90;8.40;;;18.40;49.30;;;;;;20542;6834;307078;-71
2022/05/11 04:01:21;;;;;;;7.30;6.90;;;18.60;49.00;;;;;;20755;6834;117684;-71
2022/05/11 04:03:46;;;;;;;7.95;7.53;;;18.50;49.00;;;;;;20544;6834;307966;-71
2022/05/11 04:06:12;;;;;;;7.20;6.80;;;18.60;49.30;;;;;;20743;6834;117084;-71
2022/05/11 04:08:38;;;;;;;8.48;7.93;;;18.60;49.30;;;;;;20550;6834;278899;-71
2022/05/11 04:11:05;;;;;;;7.73;7.33;;;18.70;49.30;;;;;;20765;6834;117702;-71
2022/05/11 04:13:30;;;;;;;8.77;8.00;;;18.60;49.10;;;;;;20766;6834;117255;-71
2022/05/11 04:15:56;;;;;;;8.13;7.70;;;18.10;49.70;;;;;;20750;6834;123166;-71
2022/05/11 04:18:22;;;;;;;8.37;7.87;;;18.10;49.60;;;;;;20763;6834;123268;-71
2022/05/11 04:20:47;;;;;;;8.35;7.87;;;17.90;49.90;;;;;;20549;6834;308791;-71
2022/05/11 04:23:14;;;;;;;8.33;7.83;;;18.20;50.20;;;;;;20757;6834;117760;-71
2022/05/11 04:25:40;;;;;;;9.10;8.50;;;18.10;49.80;;;;;;20547;6834;305655;-72
2022/05/11 04:28:09;;;;;;;9.52;8.93;;;18.40;49.90;;;;;;20525;6834;307612;-72
2022/05/11 04:30:35;;;;;;;8.30;7.80;;;18.60;49.30;;;;;;20751;6834;117439;-72
2022/05/11 04:33:01;;;;;;;8.43;7.93;;;18.20;50.00;;;;;;20753;6834;120349;-72
2022/05/11 04:35:30;;;;;;;8.93;8.43;;;18.10;49.90;;;;;;20541;6832;336706;-72
2022/05/11 04:37:52;;;;;;;8.47;8.07;;;18.30;50.90;;;;;;20532;6833;338848;-73
2022/05/11 04:40:17;;;;;;;9.13;8.63;;;18.60;49.60;;;;;;20522;6833;307404;-73
2022/05/11 04:42:43;;;;;;;8.50;8.00;;;18.80;49.10;;;;;;20756;6833;121344;-73
2022/05/11 04:45:09;;;;;;;9.13;8.63;;;18.70;49.20;;;;;;20540;6833;278466;-73
2022/05/11 04:47:35;;;;;;;8.93;8.43;;;18.90;49.10;;;;;;20544;6833;312291;-76
2022/05/11 04:50:01;;;;;;;8.60;8.07;;;18.90;49.10;;;;;;20732;6833;118452;-77
2022/05/11 04:52:26;;;;;;;9.20;8.50;;;18.70;49.10;;;;;;20544;6833;281731;-76
2022/05/11 04:54:52;;;;;;;8.60;8.10;;;18.80;49.30;;;;;;20760;6833;118425;-77
2022/05/11 04:57:17;;;;;;;8.25;7.75;;;18.70;49.30;;;;;;20755;6834;117058;-77
2022/05/11 04:59:44;;;;;;;8.05;7.62;;;18.20;50.10;;;;;;20752;6834;117506;-79
2022/05/11 05:02:16;;;;;;;8.77;8.27;;;18.20;50.10;;;;;;20734;6834;118367;-77
2022/05/11 05:04:43;;;;;;;8.97;8.27;;;18.40;50.70;;;;;;20534;6834;307932;-74
2022/05/11 05:07:09;;;;;;;8.53;7.73;;;18.30;50.60;;;;;;20759;6834;117913;-73
2022/05/11 05:09:34;;;;;;;8.70;8.27;;;18.40;50.30;;;;;;20557;6834;279355;-76
2022/05/11 05:12:01;;;;;;;8.20;7.70;;;18.70;50.60;;;;;;20749;6834;118367;-77
2022/05/11 05:14:26;;;;;;;8.23;7.63;;;18.70;49.90;;;;;;20748;6834;118002;-76
2022/05/11 05:16:52;;;;;;;8.27;7.78;;;18.50;50.10;;;;;;20540;6834;308460;-75
2022/05/11 05:19:17;;;;;;;7.80;7.40;;;18.70;50.20;;;;;;20540;6834;308491;-71
2022/05/11 05:21:43;;;;;;;7.80;7.27;;;19.10;49.40;;;;;;20540;6834;277994;-70
2022/05/11 05:24:09;;;;;;;8.02;7.62;;;19.50;49.50;;;;;;20527;6834;342016;-69
2022/05/11 05:26:35;;;;;;;7.50;7.10;;;19.70;48.80;;;;;;20548;6834;278043;-69
2022/05/11 05:31:48;;;;;;;7.00;6.60;;;20.00;48.30;;;;;;20757;6834;117785;-70
2022/05/11 05:34:16;;;;;;;8.05;7.55;;;19.80;48.50;;;;;;20520;6834;415066;-71
2022/05/11 05:36:41;;;;;;;8.48;7.97;;;19.80;48.80;;;;;;20545;6833;307733;-72
2022/05/11 05:39:06;;;;;;;8.40;8.00;;;20.00;49.00;;;;;;20554;6834;307535;-71
2022/05/11 05:41:32;;;;;;;8.00;7.50;;;20.10;48.70;;;;;;20553;6834;308551;-71
2022/05/11 05:43:58;;;;;;;7.22;6.68;;;20.00;48.70;;;;;;20736;6834;118864;-71
2022/05/11 05:46:25;;;;;;;7.37;6.97;;;20.00;48.70;;;;;;20763;6834;116531;-70
2022/05/11 05:48:52;;;;;;;7.07;6.67;;;19.70;49.20;;;;;;20757;6832;117601;-73
2022/05/11 05:51:17;;;;;;;7.25;6.95;;;19.50;49.60;;;;;;20547;6833;278848;-70
2022/05/11 05:53:43;;;;;;;7.10;6.70;;;19.60;49.70;;;;;;20757;6833;117319;-71
2022/05/11 05:56:08;;;;;;;7.10;6.60;;;19.70;49.70;;;;;;20731;6833;121273;-70
2022/05/11 05:58:34;;;;;;;7.53;7.12;;;19.50;49.90;;;;;;20540;6833;277658;-71
2022/05/11 06:00:59;;;;;;;7.35;6.95;;;19.80;50.40;;;;;;20557;6833;283547;-70
2022/05/11 06:03:25;;;;;;;7.50;7.10;;;20.10;49.50;;;;;;20763;6833;119228;-71
2022/05/11 06:05:51;;;;;;;6.70;6.20;;;20.10;49.40;;;;;;20751;6833;117273;-69
2022/05/11 06:08:16;;;;;;;7.30;6.85;;;20.00;49.80;;;;;;20517;6834;305598;-68
2022/05/11 06:10:42;;;;;;;7.13;6.77;;;20.30;49.50;;;;;;20734;6834;117746;-69
2022/05/11 06:13:08;;;;;;;8.27;7.75;;;20.30;49.50;;;;;;20539;6834;336638;-69
2022/05/11 06:15:39;;;;;;;7.00;6.60;;;20.60;49.20;;;;;;20757;6834;117746;-68
2022/05/11 06:18:03;;;;;;;7.33;6.73;;;20.60;49.00;;;;;;20744;6834;117804;-69
2022/05/11 06:20:29;;;;;;;8.00;7.40;;;20.50;49.10;;;;;;20760;6834;123390;-68
2022/05/11 06:22:55;;;;;;;7.10;6.70;;;20.50;49.20;;;;;;20775;6834;117241;-71
2022/05/11 06:25:22;;;;;;;6.63;6.23;;;20.40;49.20;;;;;;20756;6834;116366;-71
2022/05/11 06:27:47;;;;;;;6.80;6.40;;;20.70;49.70;;;;;;20755;6834;117823;-70
2022/05/11 06:30:13;;;;;;;6.30;5.90;;;20.60;49.60;;;;;;20753;6834;117471;-69
2022/05/11 06:32:39;;;;;;;7.33;6.97;;;21.00;49.80;;;;;;20559;6834;277148;-69
2022/05/11 06:35:04;;;;;;;7.70;7.10;;;22.00;47.60;;;;;;20561;6834;311945;-69
2022/05/11 06:37:30;;;;;;;7.50;6.90;;;23.10;45.70;;;;;;20576;6834;277653;-70
2022/05/11 06:39:56;;;;;;;6.82;6.43;;;24.00;44.10;;;;;;20751;6834;117382;-71
2022/05/11 06:42:21;;;;;;;7.07;6.60;;;24.50;44.20;;;;;;20537;6834;307602;-71
2022/05/11 06:44:47;;;;;;;7.50;7.00;;;25.10;42.00;;;;;;20763;6834;117444;-70
2022/05/11 06:47:12;;;;;;;7.15;6.75;;;25.50;42.40;;;;;;20760;6834;123099;-69
2022/05/11 06:49:38;;;;;;;6.63;6.23;;;25.60;42.50;;;;;;20546;6834;310138;-70
2022/05/11 06:52:04;;;;;;;6.53;5.90;;;26.00;40.50;;;;;;20751;6834;117898;-71
2022/05/11 07:00:01;;;;;;;5.37;4.97;;;26.60;39.90;;;;;;20743;6832;127438;-69
2022/05/11 07:02:26;;;;;;;6.00;5.40;;;26.40;40.20;;;;;;20762;6833;117757;-68
2022/05/11 07:04:52;;;;;;;6.47;6.10;;;26.30;40.30;;;;;;20758;6833;117220;-68
2022/05/11 07:07:18;;;;;;;6.18;5.70;;;26.20;40.60;;;;;;20556;6833;283322;-70
2022/05/11 07:09:43;;;;;;;6.23;5.73;;;26.40;38.90;;;;;;20551;6833;280976;-72
2022/05/11 07:12:20;;;;;;;5.90;5.50;;;26.80;39.00;;;;;;20536;6833;306728;-73
2022/05/11 07:14:44;;;;;;;5.53;5.23;;;27.00;37.90;;;;;;20749;6833;117273;-72
2022/05/11 07:17:10;;;;;;;5.60;5.30;;;26.80;38.30;;;;;;20544;6833;278455;-73
2022/05/11 07:19:36;;;;;;;5.60;5.30;;;26.80;38.20;;;;;;20758;6834;117730;-71
2022/05/11 07:22:00;;;;;;;5.23;4.93;;;26.70;38.60;;;;;;20718;6834;121476;-72
2022/05/11 07:24:27;;;;;;;7.63;5.20;;;26.40;39.00;;;;;;20540;6834;307436;-72
2022/05/11 07:26:54;;;;;;;5.13;4.83;;;26.50;38.30;;;;;;20752;6834;117372;-71
2022/05/11 07:29:18;;;;;;;5.80;5.20;;;26.30;38.80;;;;;;20752;6834;117227;-71
2022/05/11 07:31:46;;;;;;;5.60;5.13;;;26.20;39.20;;;;;;20546;6834;281845;-70
2022/05/11 07:34:09;;;;;;;5.57;4.93;;;26.40;38.80;;;;;;20735;6834;117388;-70
2022/05/11 07:36:35;;;;;;;4.90;4.70;;;26.50;38.80;;;;;;20754;6834;121306;-70
2022/05/11 07:39:01;;;;;;;5.53;5.12;;;26.30;39.20;;;;;;20531;6834;312954;-71
2022/05/11 07:41:26;;;;;;;5.87;5.33;;;26.60;39.10;;;;;;20760;6834;117760;-71
2022/05/11 07:43:52;;;;;;;5.28;4.87;;;26.70;39.10;;;;;;20540;6834;307588;-70
2022/05/11 07:46:17;;;;;;;5.22;4.93;;;26.90;38.00;;;;;;20528;6834;336718;-72
2022/05/11 07:48:43;;;;;;;4.93;4.73;;;27.30;37.10;;;;;;20748;6834;117739;-72
2022/05/11 07:51:08;;;;;;;5.32;4.93;;;27.20;37.50;;;;;;20543;6834;308508;-72
2022/05/11 07:53:36;;;;;;;6.90;5.30;;;27.40;37.60;;;;;;20748;6834;118026;-73
2022/05/11 08:01:34;;;;;;;5.40;5.00;;;27.60;37.90;;;;;;20709;6834;117584;-72
2022/05/11 08:03:59;;;;;;;5.10;4.87;;;27.70;37.60;;;;;;20691;6834;117530;-75
2022/05/11 08:06:25;;;;;;;4.97;4.50;;;27.60;38.20;;;;;;20492;6834;308377;-73
2022/05/11 08:08:51;;;;;;;5.17;4.77;;;27.80;37.90;;;;;;20711;6834;122976;-73
2022/05/11 08:11:16;;;;;;;4.75;4.50;;;28.00;38.20;;;;;;20535;6832;282481;-74
2022/05/11 08:13:43;;;;;;;5.43;5.03;;;28.30;36.70;;;;;;20756;6833;117191;-74
2022/05/11 08:16:08;;;;;;;4.63;4.30;;;28.30;37.20;;;;;;20524;6833;307905;-72
2022/05/11 08:18:34;;;;;;;4.77;4.47;;;28.60;36.90;;;;;;20758;6833;117390;-73
2022/05/11 08:21:00;;;;;;;4.10;3.90;;;28.70;36.90;;;;;;20755;6833;117743;-73
2022/05/11 08:23:26;;;;;;;5.23;4.93;;;28.70;37.10;;;;;;20755;6833;117285;-73
2022/05/11 08:25:54;;;;;;;4.65;4.35;;;28.60;36.80;;;;;;20529;6833;308312;-73
2022/05/11 08:28:16;;;;;;;6.00;4.40;;;28.90;36.80;;;;;;20710;6833;123243;-73
2022/05/11 08:33:27;;;;;;;4.40;4.00;;;29.00;36.10;;;;;;20531;6834;308327;-72
2022/05/11 08:35:57;;;;;;;4.47;4.20;;;29.30;34.60;;;;;;20735;6834;117703;-73
2022/05/11 08:38:22;;;;;;;4.60;4.30;;;29.50;34.60;;;;;;20539;6834;307561;-73
2022/05/11 08:41:11;;;;;;;4.30;4.00;;;29.70;34.60;;;;;;20740;6834;117337;-73
2022/05/11 08:43:36;;;;;;;4.30;4.00;;;29.70;34.60;;;;;;20538;6834;337050;-73
2022/05/11 08:46:43;;;;;;;4.10;3.80;;;30.00;34.80;;;;;;20532;6834;307524;-73
2022/05/11 08:49:23;;;;;;;4.13;3.73;;;30.30;33.30;;;;;;20752;6834;117697;-73
2022/05/11 08:51:56;;;;;;;4.73;3.73;;;30.40;33.30;;;;;;20752;6834;121312;-72
2022/05/11 08:54:34;;;;;;;4.00;3.70;;;30.20;33.20;;;;;;20748;6834;121307;-73
2022/05/11 08:57:08;;;;;;;4.30;3.93;;;30.00;33.70;;;;;;20734;6834;117260;-73
2022/05/11 08:59:33;;;;;;;4.23;3.83;;;30.00;34.00;;;;;;20527;6834;307811;-72
2022/05/11 09:02:16;;;;;;;4.20;3.90;;;30.20;32.30;;;;;;20741;6834;117906;-73
2022/05/11 09:04:48;;;;;;;4.00;3.70;;;30.60;33.50;;;;;;20523;6834;281777;-72
2022/05/11 09:07:13;;;;;;;3.83;3.63;;;30.60;32.90;;;;;;20536;6834;312372;-72
2022/05/11 09:09:39;;;;;;;4.40;3.80;;;31.00;33.00;;;;;;20542;6834;341179;-72
2022/05/11 09:12:06;;;;;;;4.30;3.93;;;31.30;32.10;;;;;;20733;6834;117820;-72
2022/05/11 09:14:31;;;;;;;3.97;3.67;;;31.30;31.70;;;;;;20540;6834;337883;-72
2022/05/11 09:16:57;;;;;;;5.30;4.13;;;31.40;32.00;;;;;;20743;6834;117404;-72
2022/05/11 09:19:29;;;;;;;7.90;3.60;;;31.30;31.40;;;;;;20749;6834;118199;-72
2022/05/11 09:21:55;;;;;;;5.70;4.10;;;31.30;32.30;;;;;;20721;6832;117344;-74
2022/05/11 09:24:26;;;;;;;4.40;3.60;;;31.10;32.40;;;;;;20756;6833;117691;-72
2022/05/11 09:27:06;;;;;;;4.63;4.07;;;31.00;31.90;;;;;;20719;6833;117395;-74
2022/05/11 09:29:33;;;;;;;3.92;3.58;;;30.90;31.80;;;;;;20529;6833;344397;-73
2022/05/11 09:31:59;;;;;;;3.83;3.60;;;31.20;30.70;;;;;;20733;6833;117806;-76
2022/05/11 09:34:27;;;;;;;5.73;3.80;;;31.30;30.90;;;;;;20681;6833;117732;-72
2022/05/11 09:36:52;;;;;;;3.83;3.53;;;31.20;31.00;;;;;;20754;6833;117741;-75
2022/05/11 09:39:18;;;;;;;3.70;3.40;;;31.10;31.60;;;;;;20747;6833;122103;-74
2022/05/11 09:41:50;;;;;;;4.10;3.70;;;31.10;31.70;;;;;;20537;6834;307960;-73
2022/05/11 09:44:16;;;;;;;3.93;3.63;;;31.30;31.40;;;;;;20723;6834;120903;-71
2022/05/11 09:46:41;;;;;;;4.87;3.67;;;31.40;31.20;;;;;;20738;6834;117892;-71
2022/05/11 09:49:16;;;;;;;3.73;3.53;;;31.40;30.70;;;;;;20750;6834;117227;-71
2022/05/11 09:51:43;;;;;;;3.87;3.67;;;31.30;30.70;;;;;;20538;6834;286188;-71
2022/05/11 09:54:18;;;;;;;5.78;3.90;;;31.50;30.30;;;;;;20684;6834;118929;-71
2022/05/11 09:56:56;;;;;;;3.67;3.40;;;31.50;29.90;;;;;;20742;6834;118403;-71
2022/05/11 09:59:19;;;;;;;4.07;3.87;;;31.30;30.30;;;;;;20738;6834;121228;-71
2022/05/11 10:01:45;;;;;;;3.62;3.42;;;31.20;30.30;;;;;;20738;6834;118914;-71
2022/05/11 10:04:11;;;;;;;4.00;3.70;;;31.10;30.80;;;;;;20512;6834;280448;-71
2022/05/11 10:06:47;;;;;;;4.03;3.60;;;31.70;30.10;;;;;;20514;6834;283688;-71
2022/05/11 10:09:12;;;;;;;3.80;3.33;;;31.70;30.10;;;;;;20731;6834;117282;-72
2022/05/11 10:11:38;;;;;;;4.10;3.90;;;31.70;29.90;;;;;;20534;6834;278134;-72
2022/05/11 10:21:50;;;;;;;3.92;3.72;;;32.00;29.30;;;;;;20504;6834;336976;-72
2022/05/11 10:22:11;;;;;;;3.70;3.50;;;32.10;29.80;;;;;;20719;6834;119480;-72
2022/05/11 10:25:10;;;;;;;3.77;3.57;;;31.80;29.00;;;;;;20499;6834;313136;-72
2022/05/11 10:27:39;;;;;;;3.80;3.50;;;31.80;30.10;;;;;;20531;6834;283858;-71
2022/05/11 10:30:25;;;;;;;3.63;3.53;;;32.00;29.40;;;;;;20714;6834;121190;-73
2022/05/11 10:33:13;;;;;;;3.93;3.60;;;32.00;29.70;;;;;;20732;6834;117170;-73
2022/05/11 10:35:59;;;;;;;3.87;3.47;;;31.60;30.40;;;;;;20736;6833;117159;-72
2022/05/11 10:38:29;;;;;;;3.70;3.40;;;31.80;29.80;;;;;;20523;6833;307390;-76
2022/05/11 10:40:57;;;;;;;3.57;3.37;;;31.80;29.80;;;;;;20519;6833;307956;-76
2022/05/11 10:43:30;;;;;;;3.55;3.35;;;32.40;28.80;;;;;;20530;6833;302607;-74
2022/05/11 10:45:59;;;;;;;3.90;3.60;;;32.40;28.80;;;;;;20727;6833;117199;-74
2022/05/11 10:48:46;;;;;;;4.90;3.50;;;32.30;29.00;;;;;;20391;6833;278910;-72
2022/05/11 10:51:17;;;;;;;3.83;3.63;;;32.30;29.30;;;;;;20029;6833;119347;-73
2022/05/11 10:53:49;;;;;;;3.93;3.70;;;32.00;29.40;;;;;;20741;6834;117232;-74
2022/05/11 10:56:31;;;;;;;3.57;3.37;;;31.80;30.00;;;;;;20716;6834;117411;-74
2022/05/11 10:59:07;;;;;;;3.40;3.30;;;31.60;29.80;;;;;;20757;6834;117249;-73
2022/05/11 11:01:45;;;;;;;3.87;3.53;;;31.60;29.50;;;;;;20704;6834;117385;-75
2022/05/11 11:04:16;;;;;;;3.67;3.37;;;31.60;30.00;;;;;;20711;6834;127106;-73
2022/05/11 11:09:53;;;;;;;3.93;3.50;;;31.60;30.10;;;;;;20760;6834;123518;-73
2022/05/11 11:12:55;;;;;;;3.93;3.73;;;31.60;30.00;;;;;;20737;6834;126332;-72
2022/05/11 11:15:20;;;;;;;3.50;3.17;;;31.50;30.10;;;;;;20740;6834;123483;-72
2022/05/11 11:17:47;;;;;;;3.83;3.47;;;31.50;30.00;;;;;;20744;6834;117312;-74
2022/05/11 11:20:13;;;;;;;3.35;3.17;;;31.50;29.60;;;;;;20485;6834;341469;-74
2022/05/11 11:23:14;;;;;;;3.40;3.20;;;31.60;28.60;;;;;;20747;6834;117463;-73
2022/05/11 11:25:41;;;;;;;3.78;3.50;;;31.80;29.30;;;;;;20506;6834;336754;-74
2022/05/11 11:28:11;;;;;;;3.60;3.50;;;31.80;29.30;;;;;;20730;6834;117326;-73
2022/05/11 11:30:36;;;;;;;3.97;3.60;;;32.00;29.80;;;;;;20542;6834;278147;-73
2022/05/11 11:33:15;;;;;;;3.60;3.40;;;32.00;29.90;;;;;;20736;6834;117297;-72
2022/05/11 11:35:53;;;;;;;4.33;3.60;;;32.00;30.00;;;;;;20523;6834;308564;-74
2022/05/11 11:38:23;;;;;;;4.90;3.60;;;32.30;30.10;;;;;;20512;6834;277609;-73
2022/05/11 11:40:48;;;;;;;3.67;3.47;;;32.60;28.90;;;;;;20746;6834;117286;-73
2022/05/11 11:43:43;;;;;;;4.13;3.83;;;32.60;29.30;;;;;;20456;6834;280935;-73
2022/05/11 11:46:08;;;;;;;3.67;3.50;;;32.70;29.60;;;;;;20525;6832;277995;-73
2022/05/11 11:48:34;;;;;;;3.57;3.37;;;32.80;28.50;;;;;;20757;6833;117390;-73
2022/05/11 11:51:00;;;;;;;4.23;3.53;;;32.40;29.30;;;;;;20751;6833;117668;-72
2022/05/11 11:53:38;;;;;;;5.30;3.80;;;32.40;29.30;;;;;;20529;6833;278334;-71
2022/05/11 11:56:23;;;;;;;4.97;3.50;;;32.50;29.10;;;;;;20462;6833;300896;-71
2022/05/11 11:59:06;;;;;;;4.03;3.70;;;32.70;29.20;;;;;;20545;6833;307927;-71
2022/05/11 12:01:31;;;;;;;3.90;3.60;;;33.00;28.70;;;;;;20001;6833;340085;-72
2022/05/11 12:03:57;;;;;;;3.90;3.60;;;33.20;28.10;;;;;;20518;6833;286614;-72
2022/05/11 12:15:03;;;;;;;3.50;3.20;;;33.20;27.60;;;;;;20544;6834;337103;-71
2022/05/11 12:17:35;;;;;;;3.90;3.10;;;33.20;27.70;;;;;;20751;6834;117330;-71
2022/05/11 12:20:07;;;;;;;3.30;3.10;;;33.00;27.40;;;;;;20728;6834;118603;-72
2022/05/11 12:22:33;;;;;;;3.20;3.00;;;32.60;27.80;;;;;;20513;6834;308671;-72
2022/05/11 12:24:58;;;;;;;4.50;3.40;;;32.60;27.10;;;;;;20502;6834;310078;-72
2022/05/11 12:27:31;;;;;;;3.47;3.33;;;32.70;27.50;;;;;;20735;6834;117318;-71
2022/05/11 12:29:59;;;;;;;4.70;3.57;;;32.60;27.70;;;;;;20719;6834;117731;-71
2022/05/11 12:32:35;;;;;;;3.60;3.40;;;32.40;28.00;;;;;;20746;6834;117978;-71
2022/05/11 12:35:07;;;;;;;4.13;3.73;;;32.10;28.10;;;;;;20067;6834;120103;-73
2022/05/11 12:37:33;;;;;;;3.67;3.37;;;31.90;28.10;;;;;;20750;6834;117483;-72
2022/05/11 12:39:58;;;;;;;4.12;3.78;;;31.70;28.50;;;;;;20735;6834;119833;-71
2022/05/11 12:42:30;;;;;;;3.47;3.33;;;31.50;28.70;;;;;;20752;6834;121342;-72
2022/05/11 12:44:56;;;;;;;3.20;2.95;;;31.50;28.60;;;;;;20524;6834;278026;-72
2022/05/11 12:47:22;;;;;;;3.60;3.30;;;31.70;27.20;;;;;;20542;6834;278695;-70
2022/05/11 12:49:48;;;;;;;3.90;3.60;;;31.80;27.30;;;;;;20749;6834;119561;-71
2022/05/11 12:52:17;;;;;;;3.95;3.33;;;31.70;27.50;;;;;;20517;6834;310474;-71
2022/05/11 12:54:43;;;;;;;4.57;2.97;;;31.70;28.30;;;;;;20751;6834;117300;-71
2022/05/11 12:57:11;;;;;;;3.23;3.00;;;31.70;28.30;;;;;;20484;6832;302212;-72
2022/05/11 12:59:35;;;;;;;3.13;3.00;;;31.80;27.90;;;;;;20727;6833;117148;-71
2022/05/11 13:02:23;;;;;;;3.40;3.20;;;31.70;27.80;;;;;;20735;6833;117385;-70
2022/05/11 13:04:51;;;;;;;3.67;3.37;;;31.60;28.30;;;;;;20531;6833;340881;-71
2022/05/11 13:07:15;;;;;;;7.43;3.20;;;31.70;28.40;;;;;;20725;6833;118593;-70
2022/05/11 13:09:40;;;;;;;3.20;2.97;;;31.70;27.90;;;;;;20752;6833;120286;-71
2022/05/11 13:12:06;;;;;;;3.58;3.35;;;31.50;28.00;;;;;;20724;6833;117812;-71
2022/05/11 13:14:31;;;;;;;3.20;3.10;;;31.40;28.10;;;;;;20754;6833;117364;-71
2022/05/11 13:16:57;;;;;;;3.37;3.17;;;31.20;28.40;;;;;;20524;6834;314954;-71
2022/05/11 13:19:36;;;;;;;3.93;3.23;;;31.40;27.60;;;;;;20751;6834;117360;-70